Airport Name : Coral Harbour

Other Name : Coral Harbour

ICAO : CYZS

IATA : YZS

FAA :

Latitude : 64.193333

Longitude : -83.359444

Country : Canada

Local Date and Time : 01 Mar 2021 09:09

 

TAF (Terminal Aerodrome Forecast)

TAF CYZS 011238Z 0113/0201 VRB03KT P6SM SCT040 BKN080 TEMPO 0113/0122 4SM -SN IC BKN040 OVC080 FM012200 VRB03KT P6SM SCT040 TEMPO 0122/0201 5SM IC BECMG 0122/0124 03008KT RMK NXT FCST BY 011900Z

 

METAR (METeorological Aerodrome Report)

CYZS 011400Z 06010KT 12SM IC SCT070 M34/M38 A2962 RMK AC3 SLP042

CYZS 011317Z 04011KT 15SM IC SCT070 M34/M38 A2961 RMK AC3 SLP040

CYZS 011300Z 03010KT 12SM -SN BKN070 M35/M38 A2961 RMK AC5 SLP039

CYZS 011200Z 02009KT 12SM -SN OVC070 M34/M38 A2962 RMK AS8 SLP042

CYZS 011100Z 05004KT 8SM -SN BKN070 M34/M37 A2960 RMK AS7 SLP035

To Charter a Jet Click here.